Terminal Aerodrome Forecast
Issued by NWS Newport/Morehead City, NC

Home | Current Version | Previous Version | Text Only | Print | Product List | Glossary On
Versions: 1 2 3 4 5 6 7 8 9 10 11 12 13 14 15 16 17 18 19 20
000
FTUS42 KMHX 120100 AAA
TAFEWN
TAF AMD
KEWN 120107Z 1201/1224 00000KT P6SM SCT030 BKN040
     FM120800 35003KT 4SM BR BKN010
      TEMPO 1210/1212 1SM BR OVC005
     FM121300 03005KT P6SM SCT030
     FM121700 08007KT P6SM SCT040=

USA.gov is the U.S. government's official web portal to all federal, state and local government web resources and services.